Air Navigation Services of Czech Republic  
Last data update:  21.01.2019 05:32:08 UTC Česká verze
   METEO Page displayed:  21.01.2019 05:32:55 UTC  
help
METAR EDDB 210520Z 26004KT 230V290 9999 OVC006 M04/M05 Q1023 TEMPO BKN004=
METAR EDDC 210520Z VRB02KT 0350 R22/0550V1700U FZFG SCT001 SCT007 M09/M09 Q1022 TEMPO 0200 FZFG BKN001=
METAR EDDE 210520Z 35002KT 4000 BR NSC M08/M09 Q1021 TEMPO 1500 BCFG=
METAR EDDF 210520Z 01009KT CAVOK M05/M08 Q1022 NOSIG=
METAR EDDM 210520Z 04005KT 010V070 4700 BR FEW009 OVC049 M04/M06 Q1018 TEMPO BKN009=
METAR EDDN 210520Z 12001KT 9999 BKN027 M08/M09 Q1020 NOSIG=
METAR EDDP 210520Z VRB02KT 3500 FZFG BR NSC M08/M09 Q1022 TEMPO 1200 FZFG=
METAR EDDT 210520Z 25005KT 210V270 4800 BR FEW003 OVC004 M04/M05 Q1023 R88/19//95 TEMPO 5000 BR BKN005=
METAR EDQM NIL
METAR EPBY 210500Z 25006KT 8000 NSC M06/M07 Q1021 =
METAR EPGD 210500Z 26009KT 7000 -SN FEW003 BKN007 M01/M01 Q1018 RESN R11/550195 =
METAR EPKK 210500Z 02002KT 1400 R25/2000N BR BKN003 M10/M12 Q1022 =
METAR EPKT 210500Z 33002KT 1700 BR OVC002 M07/M08 Q1021 =
METAR EPLL 210500Z 25007KT 2700 BR OVC002 M05/M06 Q1021 =
METAR EPPO 210500Z 23001KT 7000 OVC004 M04/M05 Q1022 =
METAR EPRZ 210500Z 25003KT 220V290 1000 R27/2000N BR OVC002 M07/M07 Q1021 =
METAR EPWA 210500Z 26004KT 220V280 7000 BKN007 M02/M04 Q1021 NOSIG=
METAR EPWR 210500Z 33005KT 300V360 7000 OVC009 M04/M06 Q1023 =
METAR LHBP 210530Z VRB01KT 2000 FZBCFG BR NSC M10/M10 Q1021 R88/29//95 BECMG 4000 BR=
METAR LHSM 210445Z 32003KT 9999 FEW030 M03/M05 Q1021=
METAR LKBC 210530Z AUTO 00000KT 6000 NCD M07/M08 Q1018=
METAR LKCV 210500Z 12002KT 6000 NSC M09/M11 Q1021 NOSIG RMK WHT WHT=
METAR LKKB 210500Z 00000KT 7000 NSC M08/M10 Q1021 NOSIG RMK WHT WHT=
METAR LKKU NIL
METAR LKKV 210500Z VRB02KT 9999 BKN027 M06/M08 Q1018 R29/////// RMK REG QNH 1015=
METAR LKLN 210530Z AUTO VRB02KT 9999 -SN OVC038 M02/M05 Q1020=
METAR LKMT 210530Z 05004KT 020V080 1500 BR OVC003 M06/M06 Q1022 R04/31//95 NOSIG RMK REG QNH 1015 =
METAR LKNA 210500Z 34004KT CAVOK M07/M09 Q1019 NOSIG RMK BLU BLU=
METAR LKPD 210500Z 00000KT 8000 NSC M10/M12 Q1021 NOSIG RMK BLU=
METAR LKPR 210530Z 25002KT 7000 NSC M08/M09 Q1020 NOSIG RMK REG QNH 1015=
METAR LKTB 210530Z VRB02KT CAVOK M07/M09 Q1021 NOSIG RMK REG QNH 1015=
METAR LKVO NIL
METAR LOWI 210520Z 25002KT CAVOK M10/M11 Q1018 R08/19//95 NOSIG=
METAR LOWL 210520Z 33002KT 9999 FEW035 M08/M09 Q1020 NOSIG=
METAR LOWS 210520Z 29002KT 7000 FEW012 SCT026 BKN040 M02/M05 Q1018 R15/410295 NOSIG=
METAR LOWW 210520Z 33006KT CAVOK M05/M08 Q1021 R88/19//95 NOSIG=
METAR LZIB 210530Z 10001KT CAVOK M07/M08 Q1020 NOSIG=
METAR LZKZ 210530Z 02014KT CAVOK M05/M09 Q1020 NOSIG=
METAR LZMC 210500Z 00000KT 3000 BR NSC M09/M11 Q1021=
METAR LZPP 210500Z 03004KT CAVOK M08/M10 Q1020=
METAR LZSL 210500Z 00000KT CAVOK M11/M13 Q1020=
METAR LZTT 210530Z 27006KT 250V310 CAVOK M13/M15 Q1018 NOSIG=
METAR LZZI 210500Z 10006KT 4100 BR NSC M11/M12 Q1021=